Time;durP1;ratioP1;P1;durP2;ratioP2;P2;SDS_P1;SDS_P2;PMS_P1;PMS_P2;Temp;Humidity;BMP_temperature;BMP_pressure;BME280_temperature;BME280_humidity;BME280_pressure;Samples;Min_cycle;Max_cycle;Signal;HPM_P1;HPM_P2
2021/12/10 05:18:05;;;;;;;30.80;15.93;;;;;;;-1.28;100.00;99440.03;5562598;32;157055;-86
2021/12/10 05:21:11;;;;;;;36.33;16.48;;;;;;;-1.33;100.00;99445.31;5547243;32;34452;-86
2021/12/10 05:24:15;;;;;;;31.58;17.00;;;;;;;-1.33;100.00;99429.69;5547137;32;34745;-86
2021/12/10 05:27:18;;;;;;;32.03;15.88;;;;;;;-1.33;100.00;99431.44;5548468;32;34180;-86
2021/12/10 05:30:23;;;;;;;32.78;16.70;;;;;;;-1.27;100.00;99437.41;5546829;32;33892;-86
2021/12/10 05:33:28;;;;;;;32.35;16.65;;;;;;;-1.23;100.00;99443.41;5547030;32;34373;-86
2021/12/10 05:36:31;;;;;;;30.55;16.12;;;;;;;-1.20;100.00;99445.13;5547830;32;34389;-90
2021/12/10 05:39:34;;;;;;;29.33;16.45;;;;;;;-1.12;100.00;99446.69;5548116;32;33472;-90
2021/12/10 05:42:39;;;;;;;30.42;16.20;;;;;;;-1.06;100.00;99444.87;5547268;32;34324;-90
2021/12/10 05:45:42;;;;;;;29.98;16.05;;;;;;;-1.04;100.00;99446.59;5548045;32;33663;-86
2021/12/10 05:48:45;;;;;;;32.28;16.92;;;;;;;-0.92;100.00;99440.28;5550310;32;34576;-86
2021/12/10 05:51:48;;;;;;;31.55;16.70;;;;;;;-0.75;100.00;99439.97;5540001;32;34823;-87
2021/12/10 05:54:52;;;;;;;35.33;18.27;;;;;;;-0.89;100.00;99431.56;5542866;32;35352;-87
2021/12/10 05:57:55;;;;;;;33.80;18.45;;;;;;;-0.90;100.00;99428.09;5536370;32;33767;-87
2021/12/10 06:01:03;;;;;;;36.58;20.08;;;;;;;-0.95;100.00;99412.56;5544948;32;34701;-87
2021/12/10 06:04:07;;;;;;;34.65;19.40;;;;;;;-0.93;100.00;99409.94;5545400;32;34722;-87
2021/12/10 06:07:10;;;;;;;36.22;19.37;;;;;;;-0.78;100.00;99408.81;5547559;32;34819;-87
2021/12/10 06:10:15;;;;;;;35.92;19.30;;;;;;;-0.75;100.00;99407.88;5547409;32;34078;-87
2021/12/10 06:13:18;;;;;;;39.47;20.30;;;;;;;-0.89;100.00;99403.81;5544889;32;34191;-87
2021/12/10 06:16:21;;;;;;;38.15;20.10;;;;;;;-0.93;100.00;99404.72;5536132;32;33942;-87
2021/12/10 06:19:24;;;;;;;43.87;21.00;;;;;;;-0.89;100.00;99402.94;5529888;32;33929;-87
2021/12/10 06:22:27;;;;;;;43.63;21.77;;;;;;;-0.91;100.00;99397.75;5537885;32;34264;-87
2021/12/10 06:25:31;;;;;;;41.37;20.70;;;;;;;-0.88;100.00;99404.63;5539131;32;34458;-87
2021/12/10 06:28:35;;;;;;;43.50;21.70;;;;;;;-0.64;100.00;99402.47;5531199;32;34428;-87
2021/12/10 06:31:39;;;;;;;42.45;21.48;;;;;;;-0.68;100.00;99405.16;5526341;32;34013;-87
2021/12/10 06:34:45;;;;;;;46.03;22.10;;;;;;;-0.67;100.00;99408.59;5523205;32;33810;-86
2021/12/10 06:37:48;;;;;;;46.28;22.45;;;;;;;-0.66;100.00;99418.12;5525227;32;36034;-87
2021/12/10 06:40:52;;;;;;;41.25;21.37;;;;;;;-0.56;100.00;99405.78;5518003;32;33926;-87
2021/12/10 06:43:54;;;;;;;43.85;20.85;;;;;;;-0.61;100.00;99402.41;5526286;32;33627;-87
2021/12/10 06:46:57;;;;;;;46.15;21.87;;;;;;;-0.33;100.00;99415.75;5525216;32;34215;-87
2021/12/10 06:50:01;;;;;;;48.33;22.23;;;;;;;-0.39;100.00;99410.66;5518257;32;34595;-87
2021/12/10 06:53:04;;;;;;;47.08;23.02;;;;;;;-0.36;100.00;99410.59;5526048;32;34304;-88
2021/12/10 06:56:07;;;;;;;42.13;22.17;;;;;;;-0.25;100.00;99406.91;5522710;32;34568;-89
2021/12/10 06:59:10;;;;;;;48.42;23.27;;;;;;;-0.22;100.00;99412.91;5521307;32;34599;-90
2021/12/10 07:02:13;;;;;;;47.47;22.33;;;;;;;-0.05;100.00;99406.50;5525830;32;34575;-89
2021/12/10 07:05:17;;;;;;;46.70;22.55;;;;;;;-0.20;100.00;99412.91;5533397;32;34231;-90
2021/12/10 07:08:23;;;;;;;45.58;22.67;;;;;;;-0.26;100.00;99406.03;5529871;32;34866;-88
2021/12/10 07:11:27;;;;;;;47.20;21.73;;;;;;;-0.28;100.00;99405.22;5541444;32;33946;-88
2021/12/10 07:14:30;;;;;;;47.58;22.25;;;;;;;-0.15;100.00;99401.47;5536926;32;34278;-88
2021/12/10 07:17:34;;;;;;;47.45;22.42;;;;;;;-0.22;100.00;99404.22;5538189;32;34063;-87
2021/12/10 07:20:37;;;;;;;45.38;22.67;;;;;;;-0.16;100.00;99409.31;5540037;32;33820;-89
2021/12/10 07:23:42;;;;;;;45.12;22.00;;;;;;;-0.24;100.00;99406.87;5539525;32;34579;-89
2021/12/10 07:26:46;;;;;;;43.95;22.58;;;;;;;-0.24;100.00;99409.50;5607565;26;34054;-90
2021/12/10 07:29:50;;;;;;;43.97;22.67;;;;;;;-0.14;100.00;99404.94;5567303;26;34489;-89
2021/12/10 07:32:53;;;;;;;45.33;23.38;;;;;;;-0.21;100.00;99405.97;5565597;32;34893;-90
2021/12/10 07:35:56;;;;;;;46.60;23.08;;;;;;;-0.15;100.00;99398.84;5559531;32;35006;-88
2021/12/10 07:38:59;;;;;;;42.15;22.15;;;;;;;-0.11;100.00;99396.19;5540816;32;34861;-89
2021/12/10 07:42:02;;;;;;;50.08;23.85;;;;;;;0.13;100.00;99389.56;5552891;32;34097;-91
2021/12/10 07:45:09;;;;;;;46.83;23.62;;;;;;;0.12;100.00;99393.94;5541272;32;34182;-92
2021/12/10 07:48:18;;;;;;;48.75;23.98;;;;;;;0.42;100.00;99384.56;5547283;32;34181;-89
2021/12/10 07:51:26;;;;;;;45.65;23.38;;;;;;;0.41;100.00;99381.13;5536563;32;34753;-86
2021/12/10 07:54:29;;;;;;;49.28;24.92;;;;;;;0.19;100.00;99378.16;5551059;32;34363;-87
2021/12/10 07:57:31;;;;;;;45.17;23.23;;;;;;;0.24;100.00;99374.53;5537833;32;33796;-87
2021/12/10 08:00:40;;;;;;;43.83;22.17;;;;;;;0.45;100.00;99376.69;5536290;32;33695;-88
2021/12/10 08:03:44;;;;;;;44.72;22.40;;;;;;;0.51;100.00;99373.94;5534820;32;34650;-87
2021/12/10 08:06:47;;;;;;;41.40;21.62;;;;;;;0.66;100.00;99376.13;5539688;32;33629;-88
2021/12/10 08:09:50;;;;;;;40.08;21.67;;;;;;;0.61;100.00;99371.94;5549636;32;33953;-88
2021/12/10 08:12:54;;;;;;;40.72;20.77;;;;;;;0.74;100.00;99378.56;5536915;32;34643;-90
2021/12/10 08:19:35;;;;;;;42.25;21.55;;;;;;;0.89;98.68;99374.69;847987;29;20536;-92
2021/12/10 08:22:38;;;;;;;38.90;20.08;;;;;;;1.03;97.82;99365.66;5605370;26;32646;-90
2021/12/10 08:25:42;;;;;;;40.63;19.87;;;;;;;1.06;97.43;99373.41;5548850;32;34415;-90
2021/12/10 08:28:46;;;;;;;37.72;19.87;;;;;;;1.15;97.72;99369.69;5541646;32;33737;-89
2021/12/10 08:31:49;;;;;;;41.45;19.83;;;;;;;1.21;96.15;99372.16;5554467;32;34049;-87
2021/12/10 08:34:52;;;;;;;40.95;21.27;;;;;;;1.26;95.33;99380.69;5558590;32;34837;-91
2021/12/10 08:41:41;;;;;;;40.72;20.65;;;;;;;1.17;95.96;99373.12;4978294;26;20082;-90
2021/12/10 08:44:45;;;;;;;40.40;21.87;;;;;;;1.29;96.47;99374.53;5568562;32;35653;-90
2021/12/10 08:51:13;;;;;;;41.97;21.85;;;;;;;1.37;95.19;99369.97;5501889;32;34698;-89
2021/12/10 08:54:17;;;;;;;40.58;20.75;;;;;;;1.25;96.13;99375.53;5506176;32;34119;-89
2021/12/10 08:57:22;;;;;;;47.78;22.15;;;;;;;1.59;94.36;99377.19;5501936;32;34132;-89
2021/12/10 09:00:25;;;;;;;45.47;21.77;;;;;;;1.54;95.63;99371.22;5480138;32;33979;-89
2021/12/10 09:03:28;;;;;;;39.72;21.48;;;;;;;1.52;96.27;99373.91;5498941;32;33992;-90
2021/12/10 09:28:58;;;;;;;36.22;18.92;;;;;;;2.30;88.90;99376.81;5548775;26;32934;-89
2021/12/10 09:32:04;;;;;;;34.45;19.20;;;;;;;2.26;89.46;99373.44;5524117;32;34397;-89
2021/12/10 09:35:11;;;;;;;39.90;19.87;;;;;;;2.22;88.98;99373.59;5522856;32;32064;-90
2021/12/10 09:38:20;;;;;;;36.85;18.70;;;;;;;2.09;89.41;99365.25;5523845;32;33956;-89
2021/12/10 09:41:24;;;;;;;41.58;20.90;;;;;;;1.99;90.17;99369.91;5596350;26;33864;-90
2021/12/10 09:44:39;;;;;;;37.53;19.73;;;;;;;1.90;90.20;99371.03;5530413;32;35146;-89
2021/12/10 09:47:59;;;;;;;37.85;19.73;;;;;;;1.87;90.28;99369.37;5517602;32;34215;-89
2021/12/10 09:51:07;;;;;;;34.13;18.95;;;;;;;1.83;90.56;99366.91;5528353;32;33815;-88
2021/12/10 09:54:13;;;;;;;34.95;18.87;;;;;;;1.70;93.36;99376.84;5527392;32;33692;-88
2021/12/10 09:57:26;;;;;;;38.22;19.02;;;;;;;1.92;90.66;99377.09;5529181;32;33631;-89
2021/12/10 10:15:46;;;;;;;18.12;10.30;;;;;;;1.70;88.98;99388.19;4077670;30;20092;-91
2021/12/10 11:17:34;;;;;;;33.63;18.95;;;;;;;1.37;90.78;99299.41;5438791;30;20077;-93
2021/12/10 11:20:43;;;;;;;37.55;19.45;;;;;;;1.39;91.75;99308.03;5479368;32;33903;-88
2021/12/10 11:23:45;;;;;;;37.30;19.50;;;;;;;1.38;93.57;99301.13;5474101;32;33400;-89
2021/12/10 11:26:51;;;;;;;38.72;21.12;;;;;;;1.40;94.21;99303.69;5474466;32;34350;-89
2021/12/10 11:30:02;;;;;;;41.80;21.95;;;;;;;1.38;93.73;99290.66;5472583;32;34671;-88
2021/12/10 11:33:14;;;;;;;42.65;22.60;;;;;;;1.29;94.57;99291.78;5469601;32;34136;-88
2021/12/10 11:36:26;;;;;;;46.63;23.25;;;;;;;1.13;95.96;99307.03;5473717;32;35233;-88
2021/12/10 12:09:37;;;;;;;45.53;23.40;;;;;;;1.36;94.33;99296.81;5545525;26;33789;-90
2021/12/10 12:12:44;;;;;;;43.97;23.05;;;;;;;1.44;93.22;99284.37;5559553;26;34466;-88
2021/12/10 12:26:45;;;;;;;44.92;24.35;;;;;;;1.30;95.12;99275.19;5521718;32;34694;-90
2021/12/10 12:30:14;;;;;;;45.03;23.80;;;;;;;1.31;94.70;99282.13;5511904;32;34269;-88
2021/12/10 12:34:01;;;;;;;44.08;23.80;;;;;;;1.33;95.23;99277.75;5514253;32;33743;-89
2021/12/10 12:37:07;;;;;;;48.90;24.60;;;;;;;1.57;92.60;99261.34;5512145;32;33805;-88
2021/12/10 12:40:29;;;;;;;46.22;24.08;;;;;;;1.50;91.65;99259.84;5517020;32;33866;-88
2021/12/10 12:43:32;;;;;;;48.17;25.02;;;;;;;1.41;93.75;99256.56;5519376;32;34851;-88
2021/12/10 12:47:09;;;;;;;50.30;25.52;;;;;;;1.43;91.88;99254.78;5509805;32;34656;-88
2021/12/10 12:50:17;;;;;;;49.58;24.55;;;;;;;1.38;92.65;99248.84;5510703;32;33937;-89
2021/12/10 12:53:29;;;;;;;46.83;23.95;;;;;;;1.30;92.64;99253.41;5495919;32;34829;-89
2021/12/10 12:56:38;;;;;;;;;;;;;;;1.30;93.49;99250.81;5492850;32;33994;-89
2021/12/10 13:00:09;;;;;;;48.83;24.12;;;;;;;1.36;92.42;99253.28;5493268;32;34826;-89
2021/12/10 13:03:30;;;;;;;51.00;25.25;;;;;;;1.40;92.87;99246.19;5509865;32;34064;-89
2021/12/10 13:06:59;;;;;;;47.97;24.48;;;;;;;1.49;91.80;99238.06;5492529;32;33903;-88
2021/12/10 13:10:09;;;;;;;47.17;24.63;;;;;;;1.62;91.72;99234.16;5508997;32;33902;-88
2021/12/10 13:13:24;;;;;;;40.75;22.98;;;;;;;1.56;92.13;99231.72;5509290;32;34088;-88
2021/12/10 13:16:33;;;;;;;47.05;23.95;;;;;;;1.65;91.53;99240.22;5509447;32;34484;-87
2021/12/10 13:19:37;;;;;;;43.63;23.37;;;;;;;1.51;92.31;99230.19;5508404;32;33950;-87
2021/12/10 13:22:42;;;;;;;42.22;23.70;;;;;;;1.57;92.20;99230.81;5502609;32;33844;-87
2021/12/10 13:25:45;;;;;;;42.70;23.55;;;;;;;1.58;91.59;99226.47;5490686;32;34605;-87
2021/12/10 13:28:48;;;;;;;44.35;23.00;;;;;;;1.51;92.01;99227.56;5502981;32;34019;-91
2021/12/10 13:31:52;;;;;;;45.67;24.17;;;;;;;1.47;92.94;99227.62;5491156;32;34119;-88
2021/12/10 13:34:55;;;;;;;45.05;23.55;;;;;;;1.46;92.30;99219.88;5493109;32;34015;-88
2021/12/10 13:38:02;;;;;;;46.97;24.17;;;;;;;1.39;93.28;99232.25;5491731;32;33962;-88
2021/12/10 13:41:09;;;;;;;48.58;24.95;;;;;;;1.40;93.36;99227.91;5491043;32;34780;-88
2021/12/10 13:44:32;;;;;;;42.13;23.62;;;;;;;1.39;93.93;99229.66;5492969;32;33991;-89
2021/12/10 13:47:39;;;;;;;45.10;23.23;;;;;;;1.29;94.40;99225.59;5495195;32;34755;-88
2021/12/10 13:50:46;;;;;;;44.42;22.92;;;;;;;1.48;92.76;99231.13;5515010;32;33949;-88
2021/12/10 13:54:03;;;;;;;44.53;23.70;;;;;;;1.43;92.95;99241.72;5512841;32;33884;-88
2021/12/10 13:57:10;;;;;;;44.25;24.08;;;;;;;1.33;91.68;99238.53;5511038;32;34151;-88
2021/12/10 14:00:14;;;;;;;44.80;23.70;;;;;;;1.19;93.37;99240.69;5511245;32;34169;-88
2021/12/10 14:03:47;;;;;;;41.53;22.50;;;;;;;1.19;92.88;99240.69;5512045;32;34202;-88
2021/12/10 14:07:20;;;;;;;42.78;22.55;;;;;;;1.32;92.91;99236.81;5512342;32;35034;-88
2021/12/10 14:10:32;;;;;;;43.33;22.85;;;;;;;1.18;93.74;99238.97;5502316;32;34570;-88
2021/12/10 14:13:35;;;;;;;43.33;22.20;;;;;;;1.27;92.43;99236.09;5511689;32;34598;-90
2021/12/10 14:17:02;;;;;;;42.28;22.27;;;;;;;1.35;91.52;99243.69;5511445;32;34110;-92
2021/12/10 14:20:44;;;;;;;41.78;22.15;;;;;;;1.23;92.47;99237.09;5511796;32;34387;-88
2021/12/10 14:24:06;;;;;;;;;;;;;;;1.17;92.11;99232.88;5512630;32;34066;-88
2021/12/10 14:27:30;;;;;;;44.40;22.70;;;;;;;1.18;91.58;99233.75;5512712;32;34207;-88
2021/12/10 14:30:55;;;;;;;43.28;22.25;;;;;;;0.96;93.51;99234.41;5511404;32;34499;-89
2021/12/10 14:34:07;;;;;;;44.33;22.92;;;;;;;0.97;93.52;99230.00;5512267;32;35072;-88
2021/12/10 14:37:11;;;;;;;44.28;22.50;;;;;;;1.03;92.99;99238.53;5514309;32;33889;-89
2021/12/10 14:40:51;;;;;;;42.13;22.02;;;;;;;0.99;92.41;99242.12;5511999;32;35399;-92
2021/12/10 14:44:03;;;;;;;43.10;21.60;;;;;;;1.02;91.95;99243.78;5511058;32;33782;-88
2021/12/10 14:47:16;;;;;;;40.97;22.17;;;;;;;0.88;92.15;99239.81;5507579;32;34540;-87
2021/12/10 14:50:57;;;;;;;45.60;23.40;;;;;;;0.86;92.69;99239.00;5512209;32;34572;-86
2021/12/10 14:54:22;;;;;;;43.72;22.42;;;;;;;0.85;91.82;99249.50;5515893;32;33906;-87
2021/12/10 14:57:55;;;;;;;44.17;21.05;;;;;;;0.79;92.14;99248.75;5518059;32;35120;-86
2021/12/10 15:01:18;;;;;;;40.25;20.00;;;;;;;0.73;92.00;99243.72;5522058;32;34350;-86
2021/12/10 15:05:09;;;;;;;41.20;21.45;;;;;;;0.70;91.70;99251.63;5513091;32;34216;-88
2021/12/10 15:08:48;;;;;;;41.35;21.50;;;;;;;0.70;91.51;99256.00;5506132;32;33844;-88
2021/12/10 15:12:10;;;;;;;40.92;21.62;;;;;;;0.74;92.23;99249.78;5497823;32;34132;-89
2021/12/10 15:15:51;;;;;;;44.15;21.52;;;;;;;0.76;92.04;99255.81;5498272;32;35394;-89
2021/12/10 15:19:09;;;;;;;44.00;22.23;;;;;;;0.67;92.48;99249.09;5497187;32;33962;-89
2021/12/10 15:22:17;;;;;;;43.38;22.23;;;;;;;0.79;91.70;99248.75;5503892;32;34226;-89
2021/12/10 15:25:22;;;;;;;48.00;23.67;;;;;;;0.78;92.31;99260.13;5496232;32;35205;-92
2021/12/10 15:28:25;;;;;;;45.03;22.23;;;;;;;0.85;91.81;99262.56;5493410;32;34589;-92
2021/12/10 15:31:28;;;;;;;46.55;22.60;;;;;;;0.77;92.07;99255.78;5499853;32;34234;-92
2021/12/10 15:34:42;;;;;;;46.03;22.77;;;;;;;0.61;91.56;99257.09;5502788;32;34040;-86
2021/12/10 15:37:54;;;;;;;45.05;23.38;;;;;;;0.61;93.01;99268.38;5516713;32;34534;-88
2021/12/10 15:41:31;;;;;;;45.85;23.00;;;;;;;0.72;91.39;99256.81;5502092;32;32873;-86
2021/12/10 15:44:41;;;;;;;45.63;23.42;;;;;;;0.71;90.90;99255.09;5507056;32;33741;-88
2021/12/10 15:47:45;;;;;;;46.42;24.25;;;;;;;0.71;91.11;99255.09;5513858;32;33885;-87
2021/12/10 15:50:56;;;;;;;47.03;22.52;;;;;;;0.63;92.09;99253.56;5519018;32;33858;-87
2021/12/10 15:54:05;;;;;;;45.63;21.07;;;;;;;0.63;92.55;99243.12;5516445;32;34187;-87
2021/12/10 15:57:25;;;;;;;44.42;21.83;;;;;;;0.61;92.76;99244.88;5515698;32;35514;-87
2021/12/10 16:00:32;;;;;;;40.03;21.20;;;;;;;0.77;91.39;99244.47;5515072;32;34221;-87
2021/12/10 16:04:01;;;;;;;37.13;19.95;;;;;;;0.67;92.04;99251.72;5609836;26;33991;-88
2021/12/10 16:07:08;;;;;;;36.90;18.52;;;;;;;0.69;92.54;99246.47;5519869;32;33888;-87
2021/12/10 16:10:17;;;;;;;37.00;19.52;;;;;;;0.61;92.35;99250.09;5514996;32;34368;-91
2021/12/10 16:13:24;;;;;;;39.95;19.92;;;;;;;0.58;92.37;99254.56;5512194;32;33721;-92
2021/12/10 16:16:33;;;;;;;35.58;18.40;;;;;;;0.56;93.04;99252.00;5513395;32;35518;-88
2021/12/10 16:19:38;;;;;;;37.70;19.65;;;;;;;0.58;92.75;99247.59;5518185;32;34658;-88
2021/12/10 16:22:43;;;;;;;32.72;17.75;;;;;;;0.65;92.79;99250.88;5513643;32;33596;-88
